Terminal Aerodrome Forecast
Issued by NWS

Home | Current Version | Previous Version | Graphics & Text | Print | Product List | Glossary On
Versions: 1 2 3 4 5 6 7 8 9 10 11 12 13 14 15 16 17 18 19
000
FTUS43 KMPX 260121 AAA
TAFRNH
TAF AMD
KRNH 260121Z 2601/2624 00000KT P6SM OVC100
     FM260700 18006KT P6SM OVC020
     FM260900 18009KT 2SM -SN OVC015 PROB30 2612/2615 4SM -FZDZ BR
      OVC010
     FM261500 24007KT 5SM -SN BR OVC015=

USA.gov is the U.S. government's official web portal to all federal, state and local government web resources and services.